createdAt,value
2017-08-27T00:02:37.650Z,21.30
2017-08-27T00:05:05.808Z,21.20
2017-08-27T00:07:35.736Z,21.10
2017-08-27T00:10:03.934Z,21.10
2017-08-27T00:12:34.165Z,21.10
2017-08-27T00:15:03.587Z,21.10
2017-08-27T00:17:43.929Z,20.90
2017-08-27T00:20:12.097Z,19.70
2017-08-27T00:22:40.429Z,20.70
2017-08-27T00:25:09.368Z,20.60
2017-08-27T00:27:37.523Z,20.60
2017-08-27T00:30:05.692Z,20.50
2017-08-27T00:32:35.103Z,20.50
2017-08-27T00:35:03.245Z,20.50
2017-08-27T00:37:31.428Z,20.50
2017-08-27T00:39:59.616Z,20.30
2017-08-27T00:42:27.806Z,20.40
2017-08-27T00:44:55.967Z,20.10
2017-08-27T00:47:53.018Z,20.10
2017-08-27T00:50:21.181Z,20.00
2017-08-27T00:52:49.303Z,20.10
2017-08-27T00:55:17.467Z,20.20
2017-08-27T00:57:55.510Z,20.10
2017-08-27T01:00:23.838Z,20.10
2017-08-27T01:02:52.003Z,20.00
2017-08-27T01:05:20.162Z,20.00
2017-08-27T01:07:48.266Z,20.00
2017-08-27T01:10:17.252Z,19.80
2017-08-27T01:12:45.430Z,19.70
2017-08-27T01:15:13.577Z,19.60
2017-08-27T01:17:42.065Z,19.60
2017-08-27T01:20:10.204Z,19.60
2017-08-27T01:22:38.339Z,19.60
2017-08-27T01:25:06.496Z,19.70
2017-08-27T01:27:34.649Z,19.80
2017-08-27T01:30:02.777Z,19.90
2017-08-27T01:32:31.011Z,19.90
2017-08-27T01:34:59.166Z,19.70
2017-08-27T01:37:27.323Z,19.50
2017-08-27T01:39:55.510Z,19.50
2017-08-27T01:42:23.653Z,19.60
2017-08-27T01:44:51.794Z,19.70
2017-08-27T01:47:19.995Z,19.70
2017-08-27T01:49:48.174Z,19.70
2017-08-27T01:52:16.319Z,19.60
2017-08-27T01:54:44.464Z,19.50
2017-08-27T01:57:12.621Z,19.50
2017-08-27T01:59:40.809Z,19.70
2017-08-27T02:02:08.970Z,19.70
2017-08-27T02:04:37.129Z,19.80
2017-08-27T02:07:05.308Z,19.90
2017-08-27T02:09:33.475Z,19.80
2017-08-27T02:12:01.600Z,19.90
2017-08-27T02:14:29.745Z,19.80
2017-08-27T02:16:57.898Z,19.80
2017-08-27T02:19:26.044Z,19.70
2017-08-27T02:21:54.363Z,19.90
2017-08-27T02:24:22.477Z,19.90
2017-08-27T02:26:50.608Z,19.90
2017-08-27T02:29:18.747Z,19.80
2017-08-27T02:31:46.894Z,19.70
2017-08-27T02:34:15.017Z,19.70
2017-08-27T02:36:43.162Z,19.70
2017-08-27T02:39:11.298Z,19.60
2017-08-27T02:41:39.420Z,19.60
2017-08-27T02:44:07.537Z,19.70
2017-08-27T02:46:35.695Z,19.80
2017-08-27T02:49:03.823Z,19.80
2017-08-27T02:51:31.996Z,19.80
2017-08-27T02:54:00.132Z,19.80
2017-08-27T02:56:28.278Z,19.60
2017-08-27T02:58:56.458Z,19.50
2017-08-27T03:01:24.598Z,19.50
2017-08-27T03:03:52.783Z,19.40
2017-08-27T03:06:20.921Z,19.50
2017-08-27T03:08:49.599Z,19.60
2017-08-27T03:11:17.718Z,19.60
2017-08-27T03:13:45.862Z,19.70
2017-08-27T03:16:13.988Z,19.70
2017-08-27T03:18:42.124Z,19.70
2017-08-27T03:21:10.232Z,19.50
2017-08-27T03:23:38.395Z,19.50
2017-08-27T03:26:06.515Z,19.50
2017-08-27T03:28:34.672Z,19.50
2017-08-27T03:31:02.916Z,19.50
2017-08-27T03:33:31.100Z,19.50
2017-08-27T03:35:59.225Z,19.50
2017-08-27T03:38:27.384Z,19.20
2017-08-27T03:40:55.514Z,19.20
2017-08-27T03:43:23.679Z,19.10
2017-08-27T03:45:51.797Z,19.00
2017-08-27T03:48:19.914Z,19.10
2017-08-27T03:50:48.042Z,18.90
2017-08-27T03:53:16.182Z,18.80
2017-08-27T03:55:44.305Z,18.80
2017-08-27T03:58:12.424Z,18.80
2017-08-27T04:00:40.553Z,18.80
2017-08-27T04:03:09.066Z,18.80
2017-08-27T04:05:37.259Z,18.80
2017-08-27T04:08:06.030Z,18.60
2017-08-27T04:10:35.179Z,18.50
2017-08-27T04:13:03.407Z,18.60
2017-08-27T04:15:31.625Z,18.70
2017-08-27T04:18:00.780Z,18.60
2017-08-27T04:20:29.032Z,18.70
2017-08-27T04:22:57.363Z,18.60
2017-08-27T04:25:25.510Z,18.50
2017-08-27T04:27:53.684Z,18.60
2017-08-27T04:30:21.969Z,18.70
2017-08-27T04:32:50.167Z,18.70
2017-08-27T04:35:18.459Z,18.80
2017-08-27T04:37:46.769Z,18.60
2017-08-27T04:40:14.952Z,18.60
2017-08-27T04:42:43.166Z,18.60
2017-08-27T04:45:11.415Z,18.70
2017-08-27T04:47:40.354Z,18.80
2017-08-27T04:50:08.635Z,18.80
2017-08-27T04:52:36.965Z,18.90
2017-08-27T04:55:06.047Z,19.00
2017-08-27T04:57:34.247Z,18.90
2017-08-27T05:00:02.567Z,18.90
2017-08-27T05:02:30.827Z,18.80
2017-08-27T05:04:58.988Z,18.80
2017-08-27T05:07:27.152Z,18.80
2017-08-27T05:09:55.314Z,18.70
2017-08-27T05:12:23.450Z,18.70
2017-08-27T05:14:51.691Z,18.70
2017-08-27T05:17:20.683Z,18.80
2017-08-27T05:19:48.875Z,18.70
2017-08-27T05:22:17.067Z,18.50
2017-08-27T05:24:45.336Z,18.50
2017-08-27T05:27:13.568Z,18.50
2017-08-27T05:29:41.785Z,18.60
2017-08-27T05:32:10.032Z,18.60
2017-08-27T05:34:38.249Z,18.60
2017-08-27T05:37:06.424Z,18.70
2017-08-27T05:39:34.573Z,18.60
2017-08-27T05:42:02.794Z,18.60
2017-08-27T05:44:31.063Z,18.60
2017-08-27T05:46:59.243Z,18.60
2017-08-27T05:49:27.458Z,18.70
2017-08-27T05:51:55.648Z,18.60
2017-08-27T05:54:23.869Z,18.60
2017-08-27T05:56:52.057Z,18.70
2017-08-27T05:59:30.182Z,18.80
2017-08-27T06:01:58.432Z,18.80
2017-08-27T06:04:26.743Z,18.80
2017-08-27T06:06:54.986Z,18.90
2017-08-27T06:09:23.126Z,18.90
2017-08-27T06:11:51.346Z,19.00
2017-08-27T06:14:20.423Z,19.10
2017-08-27T06:16:48.717Z,19.00
2017-08-27T06:19:17.062Z,19.00
2017-08-27T06:21:45.270Z,19.10
2017-08-27T06:24:13.450Z,19.10
2017-08-27T06:26:41.609Z,19.20
2017-08-27T06:29:09.821Z,19.10
2017-08-27T06:31:38.064Z,19.20
2017-08-27T06:34:06.281Z,19.10
2017-08-27T06:36:34.494Z,19.10
2017-08-27T06:39:03.546Z,19.20
2017-08-27T06:41:31.794Z,19.30
2017-08-27T06:44:00.218Z,19.40
2017-08-27T06:46:29.392Z,19.50
2017-08-27T06:48:57.633Z,19.50
2017-08-27T06:51:25.928Z,19.50
2017-08-27T06:53:54.108Z,19.60
2017-08-27T06:56:22.368Z,19.70
2017-08-27T06:58:50.687Z,19.90
2017-08-27T07:01:19.693Z,20.10
2017-08-27T07:03:48.104Z,20.20
2017-08-27T07:06:16.440Z,20.30
2017-08-27T07:08:44.633Z,20.30
2017-08-27T07:11:13.016Z,20.20
2017-08-27T07:13:41.275Z,20.10
2017-08-27T07:16:09.516Z,20.10
2017-08-27T07:18:37.686Z,20.20
2017-08-27T07:21:05.852Z,20.30
2017-08-27T07:23:34.040Z,20.40
2017-08-27T07:26:03.305Z,20.50
2017-08-27T07:28:32.592Z,20.50
2017-08-27T07:31:00.962Z,20.60
2017-08-27T07:33:31.204Z,20.80
2017-08-27T07:35:59.547Z,20.90
2017-08-27T07:38:28.755Z,21.00
2017-08-27T07:40:57.086Z,21.00
2017-08-27T07:43:26.017Z,20.90
2017-08-27T07:45:54.397Z,20.90
2017-08-27T07:48:22.740Z,20.80
2017-08-27T07:50:51.732Z,20.90
2017-08-27T07:53:20.142Z,21.00
2017-08-27T07:55:50.556Z,21.10
2017-08-27T07:58:19.134Z,21.10
2017-08-27T08:00:49.292Z,21.10
2017-08-27T08:03:17.768Z,21.10
2017-08-27T08:05:55.968Z,21.10
2017-08-27T08:08:25.053Z,21.10
2017-08-27T08:10:55.054Z,21.10
2017-08-27T08:13:24.050Z,21.30
2017-08-27T08:15:53.890Z,21.40
2017-08-27T08:18:23.120Z,21.50
2017-08-27T08:21:02.863Z,21.50
2017-08-27T08:23:32.831Z,21.60
2017-08-27T08:26:02.024Z,21.60
2017-08-27T08:28:40.337Z,21.70
2017-08-27T08:31:08.523Z,21.80
2017-08-27T08:33:36.601Z,21.70
2017-08-27T08:36:04.678Z,21.60
2017-08-27T08:38:32.764Z,21.50
2017-08-27T08:41:00.847Z,21.50
2017-08-27T08:43:28.924Z,21.50
2017-08-27T08:45:57.011Z,21.50
2017-08-27T08:48:25.087Z,21.50
2017-08-27T08:50:53.196Z,21.70
2017-08-27T08:53:21.272Z,21.90
2017-08-27T08:55:49.362Z,22.00
2017-08-27T08:58:17.432Z,22.10
2017-08-27T09:00:45.520Z,22.20
2017-08-27T09:03:13.599Z,22.30
2017-08-27T09:05:41.672Z,22.40
2017-08-27T09:08:09.751Z,22.20
2017-08-27T09:10:37.823Z,22.20
2017-08-27T09:13:05.903Z,22.20
2017-08-27T09:15:34.107Z,22.30
2017-08-27T09:18:02.200Z,22.30
2017-08-27T09:20:30.288Z,22.40
2017-08-27T09:22:58.382Z,22.40
2017-08-27T09:25:27.632Z,22.40
2017-08-27T09:27:56.224Z,22.40
2017-08-27T09:30:24.322Z,22.60
2017-08-27T09:32:52.412Z,22.70
2017-08-27T09:35:20.507Z,22.90
2017-08-27T09:37:48.612Z,22.80
2017-08-27T09:40:16.696Z,22.70
2017-08-27T09:42:44.803Z,22.70
2017-08-27T09:45:12.913Z,22.80
2017-08-27T09:47:40.994Z,22.90
2017-08-27T09:50:09.114Z,23.10
2017-08-27T09:52:37.187Z,23.20
2017-08-27T09:55:05.359Z,23.10
2017-08-27T09:57:33.447Z,23.20
2017-08-27T10:00:02.008Z,23.20
2017-08-27T10:02:30.147Z,23.30
2017-08-27T10:04:58.279Z,23.40
2017-08-27T10:07:26.356Z,23.40
2017-08-27T10:09:54.450Z,23.50
2017-08-27T10:12:22.592Z,23.50
2017-08-27T10:14:50.688Z,23.50
2017-08-27T10:17:18.927Z,23.60
2017-08-27T10:19:47.031Z,23.80
2017-08-27T10:22:15.128Z,23.80
2017-08-27T10:24:43.211Z,23.80
2017-08-27T10:27:11.312Z,23.70
2017-08-27T10:29:39.408Z,23.70
2017-08-27T10:32:07.516Z,23.80
2017-08-27T10:34:35.623Z,23.90
2017-08-27T10:37:03.732Z,24.00
2017-08-27T10:39:31.822Z,24.00
2017-08-27T10:41:59.934Z,24.00
2017-08-27T10:44:28.061Z,23.90
2017-08-27T10:46:56.173Z,23.90
2017-08-27T10:49:24.367Z,23.90
2017-08-27T10:51:52.478Z,23.90
2017-08-27T10:54:20.576Z,24.00
2017-08-27T10:56:48.668Z,24.10
2017-08-27T10:59:16.771Z,24.20
2017-08-27T11:01:44.868Z,24.30
2017-08-27T11:04:12.977Z,24.30
2017-08-27T11:06:41.063Z,24.30
2017-08-27T11:09:09.272Z,24.60
2017-08-27T11:11:37.367Z,24.70
2017-08-27T11:14:05.467Z,24.60
2017-08-27T11:16:33.572Z,24.60
2017-08-27T11:19:01.680Z,24.50
2017-08-27T11:21:29.773Z,24.60
2017-08-27T11:23:57.881Z,24.50
2017-08-27T11:26:26.003Z,24.50
2017-08-27T11:28:54.143Z,24.60
2017-08-27T11:31:22.239Z,24.70
2017-08-27T11:33:50.352Z,24.70
2017-08-27T11:36:18.622Z,24.90
2017-08-27T11:38:46.737Z,25.00
2017-08-27T11:41:14.823Z,25.00
2017-08-27T11:43:42.905Z,25.10
2017-08-27T11:46:11.022Z,25.20
2017-08-27T11:48:39.120Z,25.30
2017-08-27T11:51:07.225Z,25.40
2017-08-27T11:53:35.326Z,25.40
2017-08-27T11:56:03.440Z,25.40
2017-08-27T11:58:31.532Z,25.40
2017-08-27T12:00:59.619Z,25.20
2017-08-27T12:03:27.728Z,25.30
2017-08-27T12:05:55.832Z,25.40
2017-08-27T12:08:23.943Z,25.50
2017-08-27T12:10:52.055Z,25.40
2017-08-27T12:13:20.151Z,25.30
2017-08-27T12:15:48.242Z,25.30
2017-08-27T12:18:16.361Z,25.40
2017-08-27T12:20:44.463Z,25.30
2017-08-27T12:23:12.567Z,25.30
2017-08-27T12:25:40.681Z,25.40
2017-08-27T12:28:08.808Z,25.40
2017-08-27T12:30:36.879Z,25.40
2017-08-27T12:33:04.981Z,25.30
2017-08-27T12:35:33.061Z,25.40
2017-08-27T12:38:01.152Z,25.50
2017-08-27T12:40:29.247Z,25.60
2017-08-27T12:42:57.362Z,25.40
2017-08-27T12:45:25.449Z,25.50
2017-08-27T12:47:53.562Z,25.60
2017-08-27T12:50:21.652Z,25.70
2017-08-27T12:52:49.733Z,25.80
2017-08-27T12:55:17.857Z,25.90
2017-08-27T12:57:45.949Z,25.90
2017-08-27T13:00:14.117Z,25.90
2017-08-27T13:02:42.256Z,25.80
2017-08-27T13:05:10.511Z,25.70
2017-08-27T13:07:38.635Z,25.80
2017-08-27T13:10:06.825Z,25.90
2017-08-27T13:12:34.937Z,25.90
2017-08-27T13:15:03.081Z,25.90
2017-08-27T13:17:31.179Z,26.40
2017-08-27T13:19:59.271Z,26.00
2017-08-27T13:22:27.408Z,26.10
2017-08-27T13:24:55.511Z,26.10
2017-08-27T13:27:23.596Z,26.20
2017-08-27T13:29:51.672Z,26.30
2017-08-27T13:32:19.771Z,26.30
2017-08-27T13:34:47.856Z,26.40
2017-08-27T13:37:17.131Z,26.30
2017-08-27T13:39:45.230Z,26.30
2017-08-27T13:42:13.335Z,26.30
2017-08-27T13:44:41.416Z,26.30
2017-08-27T13:47:09.564Z,26.40
2017-08-27T13:49:37.651Z,26.40
2017-08-27T13:52:05.775Z,26.40
2017-08-27T13:54:33.868Z,26.40
2017-08-27T13:57:01.976Z,26.20
2017-08-27T13:59:30.134Z,26.20
2017-08-27T14:01:58.232Z,26.30
2017-08-27T14:04:30.386Z,26.40
2017-08-27T14:06:58.565Z,26.40
2017-08-27T14:09:26.683Z,26.30
2017-08-27T14:11:54.787Z,26.20
2017-08-27T14:14:23.092Z,26.30
2017-08-27T14:16:51.209Z,26.40
2017-08-27T14:19:19.308Z,26.40
2017-08-27T14:21:47.500Z,26.40
2017-08-27T14:24:15.592Z,26.50
2017-08-27T14:26:43.838Z,26.40
2017-08-27T14:29:11.972Z,26.50
2017-08-27T14:31:40.086Z,26.40
2017-08-27T14:34:08.184Z,26.40
2017-08-27T14:36:36.269Z,26.50
2017-08-27T14:39:04.389Z,26.50
2017-08-27T14:41:32.492Z,26.50
2017-08-27T14:44:00.594Z,26.50
2017-08-27T14:46:28.691Z,26.60
2017-08-27T14:48:56.810Z,26.50
2017-08-27T14:51:24.916Z,26.30
2017-08-27T14:53:53.033Z,26.30
2017-08-27T14:56:21.213Z,26.20
2017-08-27T14:58:49.309Z,26.30
2017-08-27T15:01:17.554Z,26.20
2017-08-27T15:03:45.653Z,26.20
2017-08-27T15:06:13.841Z,26.20
2017-08-27T15:08:41.924Z,26.10
2017-08-27T15:11:10.026Z,26.00
2017-08-27T15:13:38.286Z,25.90
2017-08-27T15:16:06.413Z,25.70
2017-08-27T15:18:34.536Z,25.70
2017-08-27T15:21:02.637Z,25.60
2017-08-27T15:23:30.853Z,25.70
2017-08-27T15:25:59.034Z,25.90
2017-08-27T15:28:27.194Z,25.90
2017-08-27T15:30:55.448Z,25.90
2017-08-27T15:33:23.629Z,25.50
2017-08-27T15:35:51.801Z,25.60
2017-08-27T15:38:19.977Z,25.60
2017-08-27T15:40:48.115Z,25.60
2017-08-27T15:43:16.274Z,25.60
2017-08-27T15:45:44.389Z,25.70
2017-08-27T15:48:12.521Z,25.70
2017-08-27T15:50:40.948Z,25.80
2017-08-27T15:53:09.114Z,25.80
2017-08-27T15:55:37.261Z,25.70
2017-08-27T15:58:05.390Z,25.70
2017-08-27T16:00:33.542Z,25.70
2017-08-27T16:03:01.718Z,25.70
2017-08-27T16:05:29.890Z,25.70
2017-08-27T16:07:58.093Z,25.70
2017-08-27T16:10:26.251Z,25.60
2017-08-27T16:12:54.428Z,25.60
2017-08-27T16:15:22.598Z,25.60
2017-08-27T16:17:50.757Z,25.50
2017-08-27T16:20:18.930Z,25.50
2017-08-27T16:22:47.055Z,25.50
2017-08-27T16:25:15.209Z,25.60
2017-08-27T16:27:43.381Z,25.40
2017-08-27T16:30:11.690Z,25.40
2017-08-27T16:32:39.847Z,25.40
2017-08-27T16:35:08.008Z,25.40
2017-08-27T16:37:36.177Z,25.30
2017-08-27T16:40:04.366Z,25.30
2017-08-27T16:42:32.513Z,25.20
2017-08-27T16:45:00.752Z,25.20
2017-08-27T16:47:38.761Z,25.10
2017-08-27T16:50:06.939Z,25.10
2017-08-27T16:52:35.080Z,25.20
2017-08-27T16:55:03.234Z,25.20
2017-08-27T16:57:31.351Z,25.10
2017-08-27T16:59:59.492Z,25.10
2017-08-27T17:02:27.626Z,25.10
2017-08-27T17:04:55.764Z,25.10
2017-08-27T17:07:23.907Z,25.10
2017-08-27T17:09:52.079Z,25.00
2017-08-27T17:12:20.225Z,24.90
2017-08-27T17:14:48.366Z,24.90
2017-08-27T17:17:16.579Z,24.90
2017-08-27T17:19:44.743Z,24.80
2017-08-27T17:22:12.925Z,24.60
2017-08-27T17:24:41.028Z,24.60
2017-08-27T17:27:09.141Z,24.60
2017-08-27T17:29:37.224Z,24.60
2017-08-27T17:32:05.362Z,24.60
2017-08-27T17:34:33.464Z,24.50
2017-08-27T17:37:01.553Z,24.50
2017-08-27T17:39:29.656Z,24.50
2017-08-27T17:41:57.749Z,24.50
2017-08-27T17:44:25.857Z,24.40
2017-08-27T17:46:53.963Z,24.20
2017-08-27T17:49:22.099Z,24.10
2017-08-27T17:51:50.196Z,24.10
2017-08-27T17:54:18.289Z,24.10
2017-08-27T17:56:46.436Z,24.10
2017-08-27T17:59:14.558Z,24.00
2017-08-27T18:01:42.668Z,24.00
2017-08-27T18:04:10.768Z,23.90
2017-08-27T18:06:38.917Z,23.90
2017-08-27T18:09:07.063Z,23.80
2017-08-27T18:11:35.165Z,23.70
2017-08-27T18:14:03.278Z,23.70
2017-08-27T18:16:31.391Z,23.60
2017-08-27T18:18:59.489Z,23.50
2017-08-27T18:21:27.594Z,23.50
2017-08-27T18:23:55.726Z,23.40
2017-08-27T18:26:23.845Z,23.30
2017-08-27T18:28:51.948Z,23.30
2017-08-27T18:31:20.059Z,23.40
2017-08-27T18:33:48.136Z,23.30
2017-08-27T18:36:16.362Z,23.30
2017-08-27T18:38:44.431Z,23.30
2017-08-27T18:41:12.531Z,23.10
2017-08-27T18:43:40.635Z,23.10
2017-08-27T18:46:08.702Z,23.10
2017-08-27T18:48:36.793Z,23.00
2017-08-27T18:51:04.860Z,23.00
2017-08-27T18:53:32.956Z,23.00
2017-08-27T18:56:01.036Z,23.00
2017-08-27T18:58:29.124Z,23.00
2017-08-27T19:00:57.195Z,23.00
2017-08-27T19:03:25.310Z,22.90
2017-08-27T19:05:53.416Z,22.90
2017-08-27T19:08:21.512Z,22.90
2017-08-27T19:10:49.633Z,22.80
2017-08-27T19:13:17.746Z,22.80
2017-08-27T19:15:46.860Z,22.70
2017-08-27T19:18:14.964Z,22.70
2017-08-27T19:20:43.101Z,22.60
2017-08-27T19:23:11.212Z,22.50
2017-08-27T19:25:39.344Z,22.50
2017-08-27T19:28:07.448Z,22.50
2017-08-27T19:30:35.551Z,22.50
2017-08-27T19:33:03.659Z,22.50
2017-08-27T19:35:31.776Z,22.50
2017-08-27T19:37:59.871Z,22.50
2017-08-27T19:40:27.963Z,22.50
2017-08-27T19:42:56.054Z,22.50
2017-08-27T19:45:24.201Z,22.40
2017-08-27T19:47:52.316Z,22.40
2017-08-27T19:50:20.427Z,22.40
2017-08-27T19:52:48.543Z,22.40
2017-08-27T19:55:17.672Z,22.40
2017-08-27T19:57:45.769Z,22.40
2017-08-27T20:00:13.924Z,22.40
2017-08-27T20:02:42.016Z,22.30
2017-08-27T20:05:10.149Z,22.30
2017-08-27T20:07:38.249Z,22.20
2017-08-27T20:10:06.409Z,22.20
2017-08-27T20:12:35.318Z,22.10
2017-08-27T20:15:03.416Z,22.10
2017-08-27T20:17:31.504Z,22.10
2017-08-27T20:19:59.669Z,22.10
2017-08-27T20:22:27.780Z,22.00
2017-08-27T20:24:55.872Z,21.90
2017-08-27T20:27:23.957Z,21.90
2017-08-27T20:29:52.096Z,21.90
2017-08-27T20:32:20.195Z,21.90
2017-08-27T20:34:48.301Z,21.90
2017-08-27T20:37:16.392Z,21.90
2017-08-27T20:39:44.510Z,21.90
2017-08-27T20:42:12.759Z,21.90
2017-08-27T20:44:40.956Z,21.90
2017-08-27T20:47:09.063Z,21.90
2017-08-27T20:49:37.153Z,21.90
2017-08-27T20:52:05.285Z,21.90
2017-08-27T20:54:33.384Z,21.80
2017-08-27T20:57:01.490Z,21.80
2017-08-27T20:59:29.602Z,21.80
2017-08-27T21:01:57.730Z,21.80
2017-08-27T21:04:25.820Z,21.70
2017-08-27T21:06:53.918Z,21.70
2017-08-27T21:09:22.012Z,21.70
2017-08-27T21:11:50.124Z,21.70
2017-08-27T21:14:18.211Z,21.70
2017-08-27T21:16:46.304Z,21.60
2017-08-27T21:19:14.428Z,21.60
2017-08-27T21:21:42.547Z,21.50
2017-08-27T21:24:10.666Z,21.60
2017-08-27T21:26:38.757Z,21.60
2017-08-27T21:29:06.873Z,21.50
2017-08-27T21:31:34.964Z,21.50
2017-08-27T21:34:03.084Z,21.60
2017-08-27T21:36:31.172Z,21.50
2017-08-27T21:38:59.291Z,21.50
2017-08-27T21:41:27.388Z,21.40
2017-08-27T21:43:55.492Z,21.40
2017-08-27T21:46:23.582Z,21.40
2017-08-27T21:48:51.720Z,21.40
2017-08-27T21:51:19.807Z,21.40
2017-08-27T21:53:47.920Z,21.30
2017-08-27T21:56:16.029Z,21.30
2017-08-27T21:58:44.119Z,21.30
2017-08-27T22:01:12.217Z,21.30
2017-08-27T22:03:40.348Z,21.30
2017-08-27T22:06:08.451Z,21.30
2017-08-27T22:08:36.551Z,21.20
2017-08-27T22:11:04.648Z,21.20
2017-08-27T22:13:32.735Z,21.10
2017-08-27T22:16:00.823Z,21.10
2017-08-27T22:18:28.930Z,21.00
2017-08-27T22:20:57.054Z,21.00
2017-08-27T22:23:25.140Z,21.00
2017-08-27T22:25:53.252Z,21.00
2017-08-27T22:28:21.336Z,21.00
2017-08-27T22:30:49.978Z,21.00
2017-08-27T22:33:18.080Z,20.80
2017-08-27T22:35:46.165Z,20.70
2017-08-27T22:38:14.273Z,20.70
2017-08-27T22:40:42.460Z,20.70
2017-08-27T22:43:10.554Z,20.60
2017-08-27T22:45:38.648Z,20.60
2017-08-27T22:48:06.739Z,20.60
2017-08-27T22:50:34.811Z,20.60
2017-08-27T22:53:02.907Z,20.60
2017-08-27T22:55:31.001Z,20.70
2017-08-27T22:57:59.304Z,20.60
2017-08-27T23:00:27.414Z,20.60
2017-08-27T23:02:55.520Z,20.50
2017-08-27T23:05:23.588Z,20.50
2017-08-27T23:07:51.687Z,20.50
2017-08-27T23:10:19.776Z,20.40
2017-08-27T23:12:48.014Z,20.30
2017-08-27T23:15:16.117Z,20.30
2017-08-27T23:17:44.200Z,20.30
2017-08-27T23:20:12.292Z,20.40
2017-08-27T23:22:40.367Z,20.40
2017-08-27T23:25:08.504Z,20.40
2017-08-27T23:27:36.575Z,20.40
2017-08-27T23:30:04.672Z,20.40
2017-08-27T23:32:32.752Z,20.50
2017-08-27T23:35:00.843Z,20.30
2017-08-27T23:37:28.915Z,20.30
2017-08-27T23:39:57.023Z,20.30
2017-08-27T23:42:25.103Z,20.30
2017-08-27T23:44:53.230Z,20.30
2017-08-27T23:47:21.337Z,20.30
2017-08-27T23:49:49.408Z,20.30
2017-08-27T23:52:17.515Z,20.20
2017-08-27T23:54:45.591Z,20.20
2017-08-27T23:57:13.675Z,20.20
2017-08-27T23:59:41.765Z,20.10
